Terminal Aerodrome Forecast
Issued by NWS

Home | Current Version | Previous Version | Text Only | Print | Product List | Glossary On
Versions: 1 2 3 4 5 6 7 8 9 10 11 12 13 14 15 16 17 18 19 20 21 22 23 24 25 26 27 28 29 30 31 32 33 34 35
575
FTUS41 KOKX 200718 AAA
TAFHPN
TAF AMD
KHPN 200718Z 2007/2106 29011KT P6SM SKC
     FM201200 31018G26KT P6SM SCT050
     FM210000 32013G20KT P6SM SKC
     FM210200 32010KT P6SM SKC
      AMD NOT SKED=

USA.gov is the U.S. government's official web portal to all federal, state and local government web resources and services.